Terminal Aerodrome Forecast
Issued by NWS Grand Forks, ND

Home | Current Version | Previous Version | Text Only | Print | Product List | Glossary Off
Versions: 1 2 3 4 5 6 7 8 9 10 11 12 13 14 15 16 17 18 19

000
FTUS43 KFGF 032339
TAFFAR
TAF
KFAR 032339Z 0400/0424 15014KT P6SM SCT015 BKN025
      TEMPO 0400/0402 4SM -SN BKN015
     FM040400 15014KT P6SM OVC015
     FM041100 18011KT P6SM OVC008
     FM041500 22009KT P6SM OVC015
     FM042000 26011KT P6SM BKN025=

USA.gov is the U.S. government's official web portal to all federal, state and local government web resources and services.